sensor_id;sensor_type;location;lat;lon;timestamp;pressure;altitude;pressure_sealevel;temperature;humidity
36354;BME280;22383;51.114;13.666;2022-08-21T00:01:38;69034.56;;;16.93;100.00
36354;BME280;22383;51.114;13.666;2022-08-21T00:04:07;69059.94;;;16.96;100.00
36354;BME280;22383;51.114;13.666;2022-08-21T00:06:35;69061.66;;;16.98;100.00
36354;BME280;22383;51.114;13.666;2022-08-21T00:09:05;69045.97;;;17.03;100.00
36354;BME280;22383;51.114;13.666;2022-08-21T00:11:35;69041.97;;;16.99;100.00
36354;BME280;22383;51.114;13.666;2022-08-21T00:14:04;69044.81;;;17.02;100.00
36354;BME280;22383;51.114;13.666;2022-08-21T00:16:36;69064.50;;;17.00;100.00
36354;BME280;22383;51.114;13.666;2022-08-21T00:19:11;69066.78;;;17.03;100.00
36354;BME280;22383;51.114;13.666;2022-08-21T00:21:39;69040.28;;;16.98;100.00
36354;BME280;22383;51.114;13.666;2022-08-21T00:24:11;69064.88;;;16.98;100.00
36354;BME280;22383;51.114;13.666;2022-08-21T00:26:38;69034.00;;;16.92;100.00
36354;BME280;22383;51.114;13.666;2022-08-21T00:29:06;69038.56;;;16.96;100.00
36354;BME280;22383;51.114;13.666;2022-08-21T00:31:33;69052.16;;;16.92;100.00
36354;BME280;22383;51.114;13.666;2022-08-21T00:34:00;69031.16;;;16.90;100.00
36354;BME280;22383;51.114;13.666;2022-08-21T00:36:28;69054.81;;;16.92;100.00
36354;BME280;22383;51.114;13.666;2022-08-21T00:38:56;69032.88;;;16.91;100.00
36354;BME280;22383;51.114;13.666;2022-08-21T00:41:24;69035.72;;;16.94;100.00
36354;BME280;22383;51.114;13.666;2022-08-21T00:44:07;69035.72;;;16.94;100.00
36354;BME280;22383;51.114;13.666;2022-08-21T00:46:38;69035.72;;;16.94;100.00
36354;BME280;22383;51.114;13.666;2022-08-21T00:49:08;69041.97;;;16.99;100.00
36354;BME280;22383;51.114;13.666;2022-08-21T00:54:07;69038.56;;;16.96;100.00
36354;BME280;22383;51.114;13.666;2022-08-21T00:56:56;69045.97;;;17.03;100.00
36354;BME280;22383;51.114;13.666;2022-08-21T00:59:38;69069.63;;;17.05;100.00
36354;BME280;22383;51.114;13.666;2022-08-21T01:02:09;69049.38;;;17.06;100.00
36354;BME280;22383;51.114;13.666;2022-08-21T01:04:40;69064.69;;;17.03;100.00
36354;BME280;22383;51.114;13.666;2022-08-21T01:07:07;69028.88;;;16.88;100.00
36354;BME280;22383;51.114;13.666;2022-08-21T01:09:35;69007.78;;;16.69;100.00
36354;BME280;22383;51.114;13.666;2022-08-21T01:12:03;69025.00;;;16.62;100.00
36354;BME280;22383;51.114;13.666;2022-08-21T01:14:31;69013.63;;;16.52;100.00
36354;BME280;22383;51.114;13.666;2022-08-21T01:16:59;68988.44;;;16.51;100.00
36354;BME280;22383;51.114;13.666;2022-08-21T01:19:27;68982.19;;;16.45;100.00
36354;BME280;22383;51.114;13.666;2022-08-21T01:21:55;68979.34;;;16.43;100.00
36354;BME280;22383;51.114;13.666;2022-08-21T01:24:23;69006.22;;;16.45;100.00
36354;BME280;22383;51.114;13.666;2022-08-21T01:26:51;68985.59;;;16.49;100.00
36354;BME280;22383;51.114;13.666;2022-08-21T01:29:44;68981.03;;;16.44;100.00
36354;BME280;22383;51.114;13.666;2022-08-21T01:32:16;68998.81;;;16.39;100.00
36354;BME280;22383;51.114;13.666;2022-08-21T01:34:46;68978.75;;;16.42;100.00
36354;BME280;22383;51.114;13.666;2022-08-21T01:37:15;68982.19;;;16.45;100.00
36354;BME280;22383;51.114;13.666;2022-08-21T01:39:44;69001.25;;;16.43;100.00
36354;BME280;22383;51.114;13.666;2022-08-21T01:42:11;68978.19;;;16.42;100.00
36354;BME280;22383;51.114;13.666;2022-08-21T01:44:39;68973.66;;;16.38;100.00
36354;BME280;22383;51.114;13.666;2022-08-21T01:47:08;68974.22;;;16.38;100.00
36354;BME280;22383;51.114;13.666;2022-08-21T01:49:36;68973.66;;;16.38;100.00
36354;BME280;22383;51.114;13.666;2022-08-21T01:52:04;68974.78;;;16.39;100.00
36354;BME280;22383;51.114;13.666;2022-08-21T01:54:36;68977.06;;;16.41;100.00
36354;BME280;22383;51.114;13.666;2022-08-21T01:57:04;68973.66;;;16.38;100.00
36354;BME280;22383;51.114;13.666;2022-08-21T01:59:32;68969.66;;;16.34;100.00
36354;BME280;22383;51.114;13.666;2022-08-21T02:02:00;68969.66;;;16.34;100.00
36354;BME280;22383;51.114;13.666;2022-08-21T03:14:49;68975.91;;;16.40;100.00
36354;BME280;22383;51.114;13.666;2022-08-21T03:17:16;68984.44;;;16.48;100.00
36354;BME280;22383;51.114;13.666;2022-08-21T03:20:00;69010.38;;;16.52;100.00
36354;BME280;22383;51.114;13.666;2022-08-21T03:22:33;69006.41;;;16.48;100.00
36354;BME280;22383;51.114;13.666;2022-08-21T03:25:01;69009.06;;;16.48;100.00
36354;BME280;22383;51.114;13.666;2022-08-21T03:27:34;68983.88;;;16.47;100.00
36354;BME280;22383;51.114;13.666;2022-08-21T03:30:07;69000.13;;;16.42;100.00
36354;BME280;22383;51.114;13.666;2022-08-21T03:32:38;68980.47;;;16.44;100.00
36354;BME280;22383;51.114;13.666;2022-08-21T03:35:09;69001.25;;;16.43;100.00
36354;BME280;22383;51.114;13.666;2022-08-21T03:37:37;69002.97;;;16.45;100.00
36354;BME280;22383;51.114;13.666;2022-08-21T03:40:08;68987.31;;;16.50;100.00
36354;BME280;22383;51.114;13.666;2022-08-21T03:42:36;69017.59;;;16.56;100.00
36354;BME280;22383;51.114;13.666;2022-08-21T03:45:04;69021.03;;;16.59;100.00
36354;BME280;22383;51.114;13.666;2022-08-21T03:47:35;68996.97;;;16.59;100.00
36354;BME280;22383;51.114;13.666;2022-08-21T03:50:10;69004.38;;;16.66;100.00
36354;BME280;22383;51.114;13.666;2022-08-21T03:52:43;69003.25;;;16.64;100.00
36354;BME280;22383;51.114;13.666;2022-08-21T03:55:10;69017.22;;;16.58;100.00
36354;BME280;22383;51.114;13.666;2022-08-21T03:57:37;69001.53;;;16.63;100.00
36354;BME280;22383;51.114;13.666;2022-08-21T04:00:05;69009.50;;;16.70;100.00
36354;BME280;22383;51.114;13.666;2022-08-21T04:02:35;69004.94;;;16.66;100.00
36354;BME280;22383;51.114;13.666;2022-08-21T04:05:03;69031.47;;;16.71;100.00
36354;BME280;22383;51.114;13.666;2022-08-21T04:07:32;69030.88;;;16.70;100.00
36354;BME280;22383;51.114;13.666;2022-08-21T04:10:20;69011.78;;;16.72;100.00
36354;BME280;22383;51.114;13.666;2022-08-21T04:12:51;69026.31;;;16.66;100.00
36354;BME280;22383;51.114;13.666;2022-08-21T04:16:00;69008.38;;;16.69;100.00
36354;BME280;22383;51.114;13.666;2022-08-21T04:19:08;69014.06;;;16.74;100.00
36354;BME280;22383;51.114;13.666;2022-08-21T04:49:02;69016.91;;;16.77;100.00
36354;BME280;22383;51.114;13.666;2022-08-21T05:21:20;69055.66;;;17.12;100.00
36354;BME280;22383;51.114;13.666;2022-08-21T05:23:48;69061.34;;;17.17;100.00
36354;BME280;22383;51.114;13.666;2022-08-21T05:26:15;69059.63;;;17.15;100.00
36354;BME280;22383;51.114;13.666;2022-08-21T05:28:44;69060.78;;;17.16;100.00
36354;BME280;22383;51.114;13.666;2022-08-21T05:31:12;69058.50;;;17.14;100.00
36354;BME280;22383;51.114;13.666;2022-08-21T05:33:40;69080.28;;;17.12;100.00
36354;BME280;22383;51.114;13.666;2022-08-21T05:36:09;69051.09;;;17.08;100.00
36354;BME280;22383;51.114;13.666;2022-08-21T05:38:37;69074.00;;;17.07;100.00
36354;BME280;22383;51.114;13.666;2022-08-21T05:41:04;69072.50;;;17.08;100.00
36354;BME280;22383;51.114;13.666;2022-08-21T05:43:31;69039.72;;;16.97;100.00
36354;BME280;22383;51.114;13.666;2022-08-21T05:46:04;69029.44;;;16.88;100.00
36354;BME280;22383;51.114;13.666;2022-08-21T05:48:33;69034.00;;;16.92;100.00
36354;BME280;22383;51.114;13.666;2022-08-21T05:51:10;69051.97;;;16.89;100.00
36354;BME280;22383;51.114;13.666;2022-08-21T05:53:38;69036.28;;;16.94;100.00
36354;BME280;22383;51.114;13.666;2022-08-21T05:56:06;69033.44;;;16.92;100.00
36354;BME280;22383;51.114;13.666;2022-08-21T05:58:34;69039.13;;;16.97;100.00
36354;BME280;22383;51.114;13.666;2022-08-21T06:01:03;69055.19;;;16.90;100.00
36354;BME280;22383;51.114;13.666;2022-08-21T06:03:35;69040.28;;;16.98;100.00
36354;BME280;22383;51.114;13.666;2022-08-21T06:06:03;69066.19;;;17.02;100.00
36354;BME280;22383;51.114;13.666;2022-08-21T06:08:31;69067.19;;;17.00;100.00
36354;BME280;22383;51.114;13.666;2022-08-21T06:10:59;69053.84;;;16.93;100.00
36354;BME280;22383;51.114;13.666;2022-08-21T06:13:27;69035.72;;;16.94;100.00
36354;BME280;22383;51.114;13.666;2022-08-21T06:16:10;69036.28;;;16.94;100.00
36354;BME280;22383;51.114;13.666;2022-08-21T06:18:43;69049.88;;;16.90;100.00
36354;BME280;22383;51.114;13.666;2022-08-21T06:21:11;69030.03;;;16.89;100.00
36354;BME280;22383;51.114;13.666;2022-08-21T06:23:39;69035.72;;;16.94;100.00
36354;BME280;22383;51.114;13.666;2022-08-21T06:26:07;69037.44;;;16.95;100.00
36354;BME280;22383;51.114;13.666;2022-08-21T06:28:35;69043.69;;;17.01;100.00
36354;BME280;22383;51.114;13.666;2022-08-21T06:31:15;69040.28;;;16.98;100.00
36354;BME280;22383;51.114;13.666;2022-08-21T06:33:42;69048.25;;;17.05;100.00
36354;BME280;22383;51.114;13.666;2022-08-21T06:36:10;69056.22;;;17.12;100.00
36354;BME280;22383;51.114;13.666;2022-08-21T06:38:38;69073.81;;;17.11;100.00
36354;BME280;22383;51.114;13.666;2022-08-21T06:41:06;69092.41;;;17.26;100.00
36354;BME280;22383;51.114;13.666;2022-08-21T06:43:36;69067.59;;;17.23;100.00
36354;BME280;22383;51.114;13.666;2022-08-21T06:46:07;69076.16;;;17.30;100.00
36354;BME280;22383;51.114;13.666;2022-08-21T06:48:34;69069.88;;;17.25;100.00
36354;BME280;22383;51.114;13.666;2022-08-21T06:51:02;69092.97;;;17.26;100.00
36354;BME280;22383;51.114;13.666;2022-08-21T06:53:29;69069.88;;;17.25;100.00
36354;BME280;22383;51.114;13.666;2022-08-21T06:55:57;69092.03;;;17.28;100.00
36354;BME280;22383;51.114;13.666;2022-08-21T06:58:24;69080.16;;;17.34;100.00
36354;BME280;22383;51.114;13.666;2022-08-21T07:00:52;69076.16;;;17.30;100.00
36354;BME280;22383;51.114;13.666;2022-08-21T07:03:28;69078.44;;;17.32;100.00
36354;BME280;22383;51.114;13.666;2022-08-21T07:05:56;69107.22;;;17.39;100.00
36354;BME280;22383;51.114;13.666;2022-08-21T07:08:27;69086.41;;;17.39;100.00
36354;BME280;22383;51.114;13.666;2022-08-21T07:10:58;69110.66;;;17.42;100.00
36354;BME280;22383;51.114;13.666;2022-08-21T07:13:27;69103.06;;;17.33;100.00
36354;BME280;22383;51.114;13.666;2022-08-21T07:15:54;69106.66;;;17.38;100.00
36354;BME280;22383;51.114;13.666;2022-08-21T07:18:27;69110.09;;;17.42;100.00
36354;BME280;22383;51.114;13.666;2022-08-21T07:20:55;69097.81;;;17.50;100.00
36354;BME280;22383;51.114;13.666;2022-08-21T07:23:26;69098.38;;;17.50;100.00
36354;BME280;22383;51.114;13.666;2022-08-21T07:25:54;69107.50;;;17.58;100.00
36354;BME280;22383;51.114;13.666;2022-08-21T07:28:22;69133.84;;;17.61;100.00
36354;BME280;22383;51.114;13.666;2022-08-21T07:30:52;69110.88;;;17.62;100.00
36354;BME280;22383;51.114;13.666;2022-08-21T07:33:22;69126.28;;;17.75;100.00
36354;BME280;22383;51.114;13.666;2022-08-21T07:35:50;69122.88;;;17.72;100.00
36354;BME280;22383;51.114;13.666;2022-08-21T07:38:17;69117.75;;;17.68;100.00
36354;BME280;22383;51.114;13.666;2022-08-21T07:40:46;69118.88;;;17.69;100.00
36354;BME280;22383;51.114;13.666;2022-08-21T07:43:14;69116.59;;;17.67;100.00
36354;BME280;22383;51.114;13.666;2022-08-21T07:45:44;69106.34;;;17.57;100.00
36354;BME280;22383;51.114;13.666;2022-08-21T07:48:17;69117.75;;;17.68;100.00
36354;BME280;22383;51.114;13.666;2022-08-21T07:50:44;69145.41;;;17.73;100.00
36354;BME280;22383;51.114;13.666;2022-08-21T07:53:12;69134.84;;;17.83;100.00
36354;BME280;22383;51.114;13.666;2022-08-21T07:55:42;69122.88;;;17.72;100.00
36354;BME280;22383;51.114;13.666;2022-08-21T07:58:10;69124.00;;;17.73;100.00
36354;BME280;22383;51.114;13.666;2022-08-21T08:00:37;69129.69;;;17.79;100.00
36354;BME280;22383;51.114;13.666;2022-08-21T08:03:04;69131.41;;;17.80;100.00
36354;BME280;22383;51.114;13.666;2022-08-21T08:05:32;69135.97;;;17.84;100.00
36354;BME280;22383;51.114;13.666;2022-08-21T08:07:59;69155.09;;;17.82;100.00
36354;BME280;22383;51.114;13.666;2022-08-21T08:10:26;69152.81;;;17.80;100.00
36354;BME280;22383;51.114;13.666;2022-08-21T08:12:54;69142.84;;;17.90;100.00
36354;BME280;22383;51.114;13.666;2022-08-21T08:15:23;69146.25;;;17.93;100.00
36354;BME280;22383;51.114;13.666;2022-08-21T08:17:51;69146.25;;;17.93;100.00
36354;BME280;22383;51.114;13.666;2022-08-21T08:20:19;69166.75;;;18.12;100.00
36354;BME280;22383;51.114;13.666;2022-08-21T08:22:47;69188.59;;;18.10;100.00
36354;BME280;22383;51.114;13.666;2022-08-21T08:25:21;69151.38;;;17.98;100.00
36354;BME280;22383;51.114;13.666;2022-08-21T08:27:49;69167.09;;;17.93;100.00
36354;BME280;22383;51.114;13.666;2022-08-21T08:30:19;69157.97;;;17.85;100.00
36354;BME280;22383;51.114;13.666;2022-08-21T08:32:47;69142.25;;;17.90;100.00
36354;BME280;22383;51.114;13.666;2022-08-21T08:35:16;69173.75;;;17.97;100.00
36354;BME280;22383;51.114;13.666;2022-08-21T08:37:43;69164.47;;;18.10;100.00
36354;BME280;22383;51.114;13.666;2022-08-21T08:40:32;69173.03;;;18.18;100.00
36354;BME280;22383;51.114;13.666;2022-08-21T08:43:04;69165.03;;;18.10;100.00
36354;BME280;22383;51.114;13.666;2022-08-21T08:45:33;69170.19;;;18.15;100.00
36354;BME280;22383;51.114;13.666;2022-08-21T08:48:05;69190.63;;;18.17;100.00
36354;BME280;22383;51.114;13.666;2022-08-21T08:50:45;69169.63;;;18.14;100.00
36354;BME280;22383;51.114;13.666;2022-08-21T08:53:29;69189.00;;;18.32;100.00
36354;BME280;22383;51.114;13.666;2022-08-21T08:56:00;69182.16;;;18.26;100.00
36354;BME280;22383;51.114;13.666;2022-08-21T08:58:31;69198.69;;;18.41;100.00
36354;BME280;22383;51.114;13.666;2022-08-21T09:01:01;69196.97;;;18.39;100.00
36354;BME280;22383;51.114;13.666;2022-08-21T09:03:28;69225.44;;;18.48;100.00
36354;BME280;22383;51.114;13.666;2022-08-21T09:11:23;69230.59;;;18.69;100.00
36354;BME280;22383;51.114;13.666;2022-08-21T09:24:54;69250.50;;;18.70;100.00
36354;BME280;22383;51.114;13.666;2022-08-21T09:27:26;69241.03;;;18.57;100.00
36354;BME280;22383;51.114;13.666;2022-08-21T09:29:54;69247.16;;;18.60;100.00
36354;BME280;22383;51.114;13.666;2022-08-21T09:32:25;69231.72;;;18.70;100.00
36354;BME280;22383;51.114;13.666;2022-08-21T09:35:19;69211.78;;;18.52;100.00
36354;BME280;22383;51.114;13.666;2022-08-21T09:42:55;69206.66;;;18.48;100.00
36354;BME280;22383;51.114;13.666;2022-08-21T09:45:24;69206.09;;;18.47;100.00
36354;BME280;22383;51.114;13.666;2022-08-21T09:47:55;69218.78;;;18.37;100.00
36354;BME280;22383;51.114;13.666;2022-08-21T09:50:26;69196.41;;;18.39;100.00
36354;BME280;22383;51.114;13.666;2022-08-21T09:52:58;69205.53;;;18.47;100.00
36354;BME280;22383;51.114;13.666;2022-08-21T09:55:34;69230.78;;;18.48;100.00
36354;BME280;22383;51.114;13.666;2022-08-21T09:58:36;69220.91;;;18.61;100.00
36354;BME280;22383;51.114;13.666;2022-08-21T10:01:06;69235.50;;;18.55;100.00
36354;BME280;22383;51.114;13.666;2022-08-21T10:03:34;69212.38;;;18.53;100.00
36354;BME280;22383;51.114;13.666;2022-08-21T10:06:05;69211.78;;;18.52;100.00
36354;BME280;22383;51.114;13.666;2022-08-21T10:08:38;69216.38;;;18.57;100.00
36354;BME280;22383;51.114;13.666;2022-08-21T10:11:09;69243.31;;;18.59;100.00
36354;BME280;22383;51.114;13.666;2022-08-21T10:17:00;69220.91;;;18.61;100.00
36354;BME280;22383;51.114;13.666;2022-08-21T10:27:55;69253.44;;;18.90;100.00
36354;BME280;22383;51.114;13.666;2022-08-21T10:35:51;69260.28;;;18.96;100.00
36354;BME280;22383;51.114;13.666;2022-08-21T10:41:37;69251.72;;;18.88;100.00
36354;BME280;22383;51.114;13.666;2022-08-21T10:47:13;69271.13;;;19.06;100.00
36354;BME280;22383;51.114;13.666;2022-08-21T10:56:38;69300.00;;;19.13;100.00
36354;BME280;22383;51.114;13.666;2022-08-21T10:59:24;69270.53;;;19.05;100.00
36354;BME280;22383;51.114;13.666;2022-08-21T11:02:01;69269.41;;;19.04;100.00
36354;BME280;22383;51.114;13.666;2022-08-21T11:04:36;69285.38;;;19.19;100.00
36354;BME280;22383;51.114;13.666;2022-08-21T11:07:25;69321.50;;;19.30;100.00
36354;BME280;22383;51.114;13.666;2022-08-21T11:18:02;69350.41;;;19.77;100.00
36354;BME280;22383;51.114;13.666;2022-08-21T11:21:42;69359.56;;;19.86;100.00
36354;BME280;22383;51.114;13.666;2022-08-21T11:29:54;69372.69;;;19.97;100.00
36354;BME280;22383;51.114;13.666;2022-08-21T11:38:28;69390.94;;;20.14;100.00
36354;BME280;22383;51.114;13.666;2022-08-21T11:41:20;69429.56;;;20.29;100.00
36354;BME280;22383;51.114;13.666;2022-08-21T11:44:32;69417.19;;;20.37;100.00
36354;BME280;22383;51.114;13.666;2022-08-21T11:47:23;69441.16;;;20.59;100.00
36354;BME280;22383;51.114;13.666;2022-08-21T11:50:16;69442.88;;;20.61;100.00
36354;BME280;22383;51.114;13.666;2022-08-21T11:53:34;69457.53;;;20.54;100.00
36354;BME280;22383;51.114;13.666;2022-08-21T11:56:14;69419.47;;;20.39;100.00
36354;BME280;22383;51.114;13.666;2022-08-21T11:58:51;69421.19;;;20.41;100.00
36354;BME280;22383;51.114;13.666;2022-08-21T12:01:25;69451.09;;;20.46;100.00
36354;BME280;22383;51.114;13.666;2022-08-21T12:04:00;69424.03;;;20.44;100.00
36354;BME280;22383;51.114;13.666;2022-08-21T12:06:39;69441.53;;;20.40;100.00
36354;BME280;22383;51.114;13.666;2022-08-21T12:09:33;69435.47;;;20.54;100.00
36354;BME280;22383;51.114;13.666;2022-08-21T12:17:39;69454.31;;;20.71;100.00
36354;BME280;22383;51.114;13.666;2022-08-21T12:25:58;69499.44;;;21.11;100.00
36354;BME280;22383;51.114;13.666;2022-08-21T12:28:36;69506.28;;;21.18;100.00
36354;BME280;22383;51.114;13.666;2022-08-21T12:31:04;69522.84;;;21.32;100.00
36354;BME280;22383;51.114;13.666;2022-08-21T12:33:51;69532.56;;;21.41;100.00
36354;BME280;22383;51.114;13.666;2022-08-21T12:36:23;69546.28;;;21.53;100.00
36354;BME280;22383;51.114;13.666;2022-08-21T12:38:59;69536.00;;;21.44;100.00
36354;BME280;22383;51.114;13.666;2022-08-21T12:41:32;69541.91;;;21.28;100.00
36354;BME280;22383;51.114;13.666;2022-08-21T12:44:15;69466.88;;;20.82;100.00
36354;BME280;22383;51.114;13.666;2022-08-21T12:46:53;69433.19;;;20.52;100.00
36354;BME280;22383;51.114;13.666;2022-08-21T12:49:26;69420.03;;;20.40;100.00
36354;BME280;22383;51.114;13.666;2022-08-21T12:52:01;69419.47;;;20.39;100.00
36354;BME280;22383;51.114;13.666;2022-08-21T12:54:36;69407.50;;;20.29;100.00
36354;BME280;22383;51.114;13.666;2022-08-21T12:59:37;69478.88;;;20.93;100.00
36354;BME280;22383;51.114;13.666;2022-08-21T13:02:15;69485.16;;;20.99;100.00
36354;BME280;22383;51.114;13.666;2022-08-21T13:04:44;69497.94;;;20.88;100.00
36354;BME280;22383;51.114;13.666;2022-08-21T13:07:16;69476.03;;;20.90;100.00
36354;BME280;22383;51.114;13.666;2022-08-21T13:09:54;69502.50;;;20.92;100.00
36354;BME280;22383;51.114;13.666;2022-08-21T13:12:37;69489.72;;;21.03;100.00
36354;BME280;22383;51.114;13.666;2022-08-21T13:15:06;69468.03;;;20.83;100.00
36354;BME280;22383;51.114;13.666;2022-08-21T13:17:38;69478.31;;;20.92;100.00
36354;BME280;22383;51.114;13.666;2022-08-21T13:20:22;69481.72;;;20.95;100.00
36354;BME280;22383;51.114;13.666;2022-08-21T13:22:50;69493.72;;;21.06;100.00
36354;BME280;22383;51.114;13.666;2022-08-21T13:25:20;69550.84;;;21.58;100.00
36354;BME280;22383;51.114;13.666;2022-08-21T13:28:09;69580.56;;;21.84;100.00
36354;BME280;22383;51.114;13.666;2022-08-21T13:30:43;69574.28;;;21.79;100.00
36354;BME280;22383;51.114;13.666;2022-08-21T13:33:14;69573.72;;;21.78;100.00
36354;BME280;22383;51.114;13.666;2022-08-21T13:36:14;69575.44;;;21.80;100.00
36354;BME280;22383;51.114;13.666;2022-08-21T13:38:44;69562.84;;;21.68;100.00
36354;BME280;22383;51.114;13.666;2022-08-21T13:43:56;69566.84;;;21.72;100.00
36354;BME280;22383;51.114;13.666;2022-08-21T13:46:29;69570.13;;;21.56;100.00
36354;BME280;22383;51.114;13.666;2022-08-21T13:48:59;69551.44;;;21.58;100.00
36354;BME280;22383;51.114;13.666;2022-08-21T13:51:27;69541.16;;;21.49;100.00
36354;BME280;22383;51.114;13.666;2022-08-21T13:53:54;69564.97;;;21.51;100.00
36354;BME280;22383;51.114;13.666;2022-08-21T13:56:26;69566.28;;;21.71;100.00
36354;BME280;22383;51.114;13.666;2022-08-21T13:58:56;69603.41;;;22.05;100.00
36354;BME280;22383;51.114;13.666;2022-08-21T14:04:18;69704.06;;;22.95;100.00
36354;BME280;22383;51.114;13.666;2022-08-21T14:06:47;69729.25;;;23.18;100.00
36354;BME280;22383;51.114;13.666;2022-08-21T14:09:39;69718.38;;;23.08;100.00
36354;BME280;22383;51.114;13.666;2022-08-21T14:12:16;69721.25;;;23.11;100.00
36354;BME280;22383;51.114;13.666;2022-08-21T14:14:50;69706.34;;;22.97;100.00
36354;BME280;22383;51.114;13.666;2022-08-21T14:17:32;69693.19;;;22.85;100.00
36354;BME280;22383;51.114;13.666;2022-08-21T14:20:06;69678.34;;;22.72;100.00
36354;BME280;22383;51.114;13.666;2022-08-21T14:25:06;69693.19;;;22.85;100.00
36354;BME280;22383;51.114;13.666;2022-08-21T14:27:40;69692.06;;;22.84;100.00
36354;BME280;22383;51.114;13.666;2022-08-21T14:30:17;69670.31;;;22.65;100.00
36354;BME280;22383;51.114;13.666;2022-08-21T14:32:46;69653.03;;;22.30;100.00
36354;BME280;22383;51.114;13.666;2022-08-21T14:35:14;69614.28;;;22.15;100.00
36354;BME280;22383;51.114;13.666;2022-08-21T14:37:50;69573.16;;;21.78;100.00
36354;BME280;22383;51.114;13.666;2022-08-21T14:40:20;69561.72;;;21.67;100.00
36354;BME280;22383;51.114;13.666;2022-08-21T14:42:49;69547.81;;;21.36;100.00
36354;BME280;22383;51.114;13.666;2022-08-21T14:45:25;69504.00;;;21.15;100.00
36354;BME280;22383;51.114;13.666;2022-08-21T14:47:55;69513.13;;;21.24;100.00
36354;BME280;22383;51.114;13.666;2022-08-21T14:50:23;69517.69;;;21.28;100.00
36354;BME280;22383;51.114;13.666;2022-08-21T14:52:54;69514.84;;;21.25;100.00
36354;BME280;22383;51.114;13.666;2022-08-21T14:55:22;69523.81;;;21.14;100.00
36354;BME280;22383;51.114;13.666;2022-08-21T14:57:51;69496.00;;;21.08;100.00
36354;BME280;22383;51.114;13.666;2022-08-21T15:00:21;69481.72;;;20.95;100.00
36354;BME280;22383;51.114;13.666;2022-08-21T15:03:02;69496.38;;;20.89;100.00
36354;BME280;22383;51.114;13.666;2022-08-21T15:05:29;69491.25;;;20.85;100.00
36354;BME280;22383;51.114;13.666;2022-08-21T15:08:00;69479.28;;;20.74;100.00
36354;BME280;22383;51.114;13.666;2022-08-21T15:10:30;69430.31;;;20.49;100.00
36354;BME280;22383;51.114;13.666;2022-08-21T15:12:58;69410.91;;;20.32;100.00
36354;BME280;22383;51.114;13.666;2022-08-21T15:15:26;69430.72;;;20.30;100.00
36354;BME280;22383;51.114;13.666;2022-08-21T15:17:53;69401.22;;;20.23;100.00
36354;BME280;22383;51.114;13.666;2022-08-21T15:20:21;69419.28;;;20.20;100.00
36354;BME280;22383;51.114;13.666;2022-08-21T15:22:49;69413.56;;;20.15;100.00
36354;BME280;22383;51.114;13.666;2022-08-21T15:25:16;69419.44;;;20.23;100.00
36354;BME280;22383;51.114;13.666;2022-08-21T15:27:43;69389.81;;;20.13;100.00
36354;BME280;22383;51.114;13.666;2022-08-21T15:30:11;69404.44;;;20.07;100.00
36354;BME280;22383;51.114;13.666;2022-08-21T15:32:38;69405.00;;;20.07;100.00
36354;BME280;22383;51.114;13.666;2022-08-21T15:35:06;69384.09;;;20.08;100.00
36354;BME280;22383;51.114;13.666;2022-08-21T15:37:35;69384.66;;;20.08;100.00
36354;BME280;22383;51.114;13.666;2022-08-21T15:40:03;69396.03;;;20.01;100.00
36354;BME280;22383;51.114;13.666;2022-08-21T15:42:32;69375.53;;;20.00;100.00
36354;BME280;22383;51.114;13.666;2022-08-21T15:45:02;69382.38;;;20.06;100.00
36354;BME280;22383;51.114;13.666;2022-08-21T15:47:33;69373.81;;;19.98;100.00
36354;BME280;22383;51.114;13.666;2022-08-21T15:50:03;69395.28;;;19.98;100.00
36354;BME280;22383;51.114;13.666;2022-08-21T15:52:34;69380.66;;;20.05;100.00
36354;BME280;22383;51.114;13.666;2022-08-21T15:55:03;69374.41;;;19.99;100.00
36354;BME280;22383;51.114;13.666;2022-08-21T15:57:30;69366.41;;;19.92;100.00
36354;BME280;22383;51.114;13.666;2022-08-21T16:00:03;69395.69;;;19.96;100.00
36354;BME280;22383;51.114;13.666;2022-08-21T16:02:55;69392.13;;;19.91;100.00
36354;BME280;22383;51.114;13.666;2022-08-21T16:05:24;69358.97;;;19.85;100.00
36354;BME280;22383;51.114;13.666;2022-08-21T16:07:52;69381.03;;;19.86;100.00
36354;BME280;22383;51.114;13.666;2022-08-21T16:10:21;69377.03;;;19.82;100.00
36354;BME280;22383;51.114;13.666;2022-08-21T16:12:57;69347.00;;;19.74;100.00
36354;BME280;22383;51.114;13.666;2022-08-21T16:15:26;69345.84;;;19.73;100.00
36354;BME280;22383;51.114;13.666;2022-08-21T16:17:53;69335.56;;;19.64;100.00
36354;BME280;22383;51.114;13.666;2022-08-21T16:20:26;69339.00;;;19.67;100.00
36354;BME280;22383;51.114;13.666;2022-08-21T16:22:55;69354.03;;;19.59;100.00
36354;BME280;22383;51.114;13.666;2022-08-21T16:25:24;69325.31;;;19.55;100.00
36354;BME280;22383;51.114;13.666;2022-08-21T16:27:54;69312.75;;;19.43;100.00
36354;BME280;22383;51.114;13.666;2022-08-21T16:30:27;69317.88;;;19.48;100.00
36354;BME280;22383;51.114;13.666;2022-08-21T16:32:55;69318.44;;;19.49;100.00
36354;BME280;22383;51.114;13.666;2022-08-21T16:35:23;69323.00;;;19.53;100.00
36354;BME280;22383;51.114;13.666;2022-08-21T16:37:51;69327.00;;;19.56;100.00
36354;BME280;22383;51.114;13.666;2022-08-21T16:40:20;69347.16;;;19.53;100.00
36354;BME280;22383;51.114;13.666;2022-08-21T16:42:49;69313.91;;;19.44;100.00
36354;BME280;22383;51.114;13.666;2022-08-21T16:45:18;69332.34;;;19.39;100.00
36354;BME280;22383;51.114;13.666;2022-08-21T16:47:47;69308.75;;;19.40;100.00
36354;BME280;22383;51.114;13.666;2022-08-21T16:50:19;69301.91;;;19.34;100.00